Time;durP1;ratioP1;P1;durP2;ratioP2;P2;SDS_P1;SDS_P2;PMS_P1;PMS_P2;Temp;Humidity;BMP_temperature;BMP_pressure;BME280_temperature;BME280_humidity;BME280_pressure;Samples;Min_cycle;Max_cycle;Signal;HPM_P1;HPM_P2
2022/09/10 00:07:38;;;;;;;6.07;2.67;;;;;;;15.57;100.00;100807.59;20822080;28;20106;-63
2022/09/10 00:18:00;;;;;;;5.32;2.80;;;;;;;15.60;100.00;100801.22;20830680;28;20053;-63
2022/09/10 00:28:24;;;;;;;5.13;3.20;;;;;;;15.59;100.00;100799.56;20838235;28;20103;-64
2022/09/10 00:38:46;;;;;;;6.35;3.50;;;;;;;15.37;100.00;100805.00;20816041;28;20041;-63
2022/09/10 00:49:13;;;;;;;7.00;3.90;;;;;;;15.40;100.00;100811.78;20826226;28;20041;-64
2022/09/10 00:59:35;;;;;;;10.77;4.00;;;;;;;15.48;100.00;100812.78;20841982;28;20041;-63
2022/09/10 01:09:58;;;;;;;7.00;4.20;;;;;;;15.45;100.00;100798.13;20826938;28;20053;-63
2022/09/10 01:20:29;;;;;;;7.00;4.32;;;;;;;15.52;100.00;100801.06;20856085;28;20753;-63
2022/09/10 01:30:56;;;;;;;8.43;4.67;;;;;;;15.37;100.00;100815.50;20852268;28;20057;-63
2022/09/10 01:41:22;;;;;;;6.60;4.80;;;;;;;15.42;100.00;100815.97;20846273;28;20644;-63
2022/09/10 01:52:14;;;;;;;6.03;5.43;;;;;;;15.47;100.00;100817.22;20848826;28;20049;-62
2022/09/10 02:02:39;;;;;;;11.90;5.50;;;;;;;15.56;100.00;100810.38;20841556;28;20555;-63
2022/09/10 02:13:01;;;;;;;8.07;5.60;;;;;;;15.53;100.00;100810.63;20831834;28;20119;-63
2022/09/10 02:23:32;;;;;;;13.95;6.22;;;;;;;15.49;100.00;100824.97;20848515;28;20045;-62
2022/09/10 02:33:53;;;;;;;13.27;6.27;;;;;;;15.56;100.00;100820.88;20835902;28;20088;-63
2022/09/10 02:44:15;;;;;;;11.73;6.95;;;;;;;15.64;100.00;100824.53;20842632;28;20050;-63
2022/09/10 02:54:37;;;;;;;12.07;6.93;;;;;;;15.60;100.00;100822.25;20849475;28;20034;-63
2022/09/10 03:04:58;;;;;;;12.43;7.47;;;;;;;15.59;100.00;100825.84;20831652;28;20049;-64
2022/09/10 03:15:21;;;;;;;10.88;8.32;;;;;;;15.53;100.00;100826.38;20837956;28;20557;-63
2022/09/10 03:25:43;;;;;;;11.43;8.40;;;;;;;15.60;100.00;100827.50;20834397;28;20072;-62
2022/09/10 03:36:12;;;;;;;12.45;9.15;;;;;;;15.53;100.00;100815.88;20834311;28;20045;-64
2022/09/10 03:46:33;;;;;;;13.55;9.88;;;;;;;15.55;100.00;100824.47;20844715;28;20053;-63
2022/09/10 03:56:54;;;;;;;;;;;;;;;15.66;100.00;100821.75;20832454;28;20516;-63
2022/09/10 04:07:16;;;;;;;16.70;10.90;;;;;;;15.60;100.00;100827.50;20838079;28;20042;-63
2022/09/10 04:17:37;;;;;;;;;;;;;;;15.64;100.00;100829.78;20840785;28;20104;-62
2022/09/10 04:28:00;;;;;;;18.10;11.13;;;;;;;15.62;100.00;100839.56;20811971;28;19932;-62
2022/09/10 04:38:22;;;;;;;18.70;10.88;;;;;;;15.73;100.00;100843.91;20838867;28;20068;-64
2022/09/10 04:48:43;;;;;;;20.23;12.35;;;;;;;15.76;100.00;100848.91;20848652;28;20052;-62
2022/09/10 04:59:05;;;;;;;14.95;12.70;;;;;;;15.74;100.00;100848.19;20849489;28;20045;-63
2022/09/10 05:09:32;;;;;;;16.05;11.50;;;;;;;15.82;100.00;100845.75;20855175;28;20562;-64
2022/09/10 05:19:54;;;;;;;17.45;12.50;;;;;;;15.88;100.00;100855.72;20841772;28;20108;-62
2022/09/10 05:30:17;;;;;;;22.38;12.68;;;;;;;15.85;100.00;100854.22;20835348;28;20037;-63
2022/09/10 05:40:41;;;;;;;21.77;12.57;;;;;;;15.85;100.00;100866.53;20814820;28;20044;-63
2022/09/10 05:51:03;;;;;;;20.25;12.63;;;;;;;15.81;100.00;100873.00;20829538;28;20095;-63
2022/09/10 06:01:25;;;;;;;16.23;12.65;;;;;;;16.00;100.00;100871.28;20819434;28;20053;-63
2022/09/10 06:11:47;;;;;;;21.25;13.45;;;;;;;15.90;100.00;100888.00;20844312;28;20057;-62
2022/09/10 06:22:09;;;;;;;19.85;13.02;;;;;;;15.99;100.00;100892.47;20820325;28;20126;-63
2022/09/10 06:32:31;;;;;;;20.10;13.35;;;;;;;16.04;100.00;100906.03;20841494;28;20112;-63
2022/09/10 06:42:53;;;;;;;18.98;13.60;;;;;;;16.17;100.00;100912.75;20815239;28;20091;-62
2022/09/10 06:53:15;;;;;;;21.13;14.18;;;;;;;16.32;100.00;100915.88;20812350;28;20053;-65
2022/09/10 07:03:37;;;;;;;18.83;14.20;;;;;;;16.32;100.00;100916.72;20853886;28;20029;-61
2022/09/10 07:14:00;;;;;;;20.88;14.65;;;;;;;16.41;100.00;100918.56;20828094;28;20041;-65
2022/09/10 07:24:21;;;;;;;26.42;15.50;;;;;;;16.48;100.00;100938.94;20830862;28;20052;-64
2022/09/10 07:34:43;;;;;;;23.95;15.85;;;;;;;16.60;100.00;100943.13;20826335;28;20045;-65
2022/09/10 07:45:06;;;;;;;22.08;15.98;;;;;;;16.82;100.00;100947.34;20823257;28;20103;-64
2022/09/10 07:55:29;;;;;;;30.75;17.88;;;;;;;17.07;100.00;100955.56;20821127;28;20092;-63
2022/09/10 08:05:50;;;;;;;24.65;17.63;;;;;;;17.18;100.00;100959.88;20832602;28;20061;-61
2022/09/10 08:16:16;;;;;;;27.33;19.08;;;;;;;17.07;100.00;100973.19;20825664;28;20049;-66
2022/09/10 08:26:38;;;;;;;27.50;19.25;;;;;;;17.06;100.00;100988.16;20857501;28;20045;-65
2022/09/10 08:37:02;;;;;;;21.75;16.92;;;;;;;17.25;100.00;100993.47;20852691;28;20045;-66
2022/09/10 08:47:26;;;;;;;22.88;16.27;;;;;;;17.37;100.00;101002.94;20849970;28;20045;-65
2022/09/10 08:57:54;;;;;;;17.80;14.85;;;;;;;17.52;100.00;101025.28;20844234;28;20046;-63
2022/09/10 09:08:20;;;;;;;22.33;14.43;;;;;;;17.68;100.00;101022.94;20837113;28;20430;-65
2022/09/10 09:19:53;;;;;;;21.17;12.50;;;;;;;17.75;100.00;101026.69;20839557;28;20053;-64
2022/09/10 09:30:19;;;;;;;16.02;11.82;;;;;;;18.18;100.00;101027.06;20740157;28;20115;-65
2022/09/10 09:40:55;;;;;;;14.15;9.65;;;;;;;18.38;100.00;101039.25;20827771;28;20124;-65
2022/09/10 09:51:20;;;;;;;15.48;9.57;;;;;;;18.54;98.58;101041.13;20831830;28;20091;-65
2022/09/10 10:01:43;;;;;;;11.73;9.00;;;;;;;18.55;99.07;101040.16;20821523;28;20052;-65
2022/09/10 10:12:06;;;;;;;12.38;9.10;;;;;;;18.74;96.22;101033.97;20816683;28;20049;-64
2022/09/10 10:22:31;;;;;;;14.07;9.45;;;;;;;18.79;96.12;101034.38;20841707;28;20107;-63
2022/09/10 10:32:58;;;;;;;10.50;7.15;;;;;;;19.19;92.12;101030.44;20822737;28;20398;-63
2022/09/10 10:43:41;;;;;;;14.25;7.28;;;;;;;19.27;89.54;101035.81;20835174;28;20045;-64
2022/09/10 10:54:32;;;;;;;14.48;9.10;;;;;;;18.91;92.30;101036.69;20832098;28;20108;-62
2022/09/10 11:05:00;;;;;;;13.98;9.05;;;;;;;19.09;89.90;101040.19;20827968;28;20103;-62
2022/09/10 11:15:47;;;;;;;15.77;10.38;;;;;;;19.01;88.44;101029.53;20841337;28;20052;-62
2022/09/10 11:26:21;;;;;;;15.80;8.45;;;;;;;19.64;92.12;101039.16;20829811;28;20049;-63
2022/09/10 11:36:53;;;;;;;16.73;10.48;;;;;;;19.52;86.16;101029.78;20805859;28;20041;-64
2022/09/10 11:47:31;;;;;;;15.50;9.23;;;;;;;19.78;88.81;101020.13;20812373;28;20432;-63
2022/09/10 11:58:10;;;;;;;11.77;8.30;;;;;;;19.81;86.87;101019.78;20816518;28;20045;-64
2022/09/10 12:08:54;;;;;;;22.52;10.63;;;;;;;19.67;90.31;101017.69;20814686;28;20068;-66
2022/09/10 12:19:29;;;;;;;13.98;9.38;;;;;;;19.96;88.15;101012.97;20817367;28;20589;-66
2022/09/10 12:29:50;;;;;;;12.95;9.38;;;;;;;19.68;94.67;101016.69;20821404;28;20103;-64
2022/09/10 12:40:43;;;;;;;14.85;8.52;;;;;;;20.17;91.81;101013.50;20821046;28;20111;-65
2022/09/10 12:51:20;;;;;;;14.63;9.27;;;;;;;19.89;86.23;101014.56;20824189;28;20049;-65
2022/09/10 13:01:47;;;;;;;10.68;8.70;;;;;;;19.80;91.69;101021.59;20811968;28;20186;-64
2022/09/10 13:12:19;;;;;;;11.65;9.27;;;;;;;19.49;90.29;101024.81;20828470;28;20026;-62
2022/09/10 13:23:03;;;;;;;18.10;11.77;;;;;;;19.45;91.53;101034.00;20833809;28;20045;-65
2022/09/10 13:33:32;;;;;;;16.20;9.93;;;;;;;19.69;89.72;101032.44;20830279;28;20623;-64
2022/09/10 13:44:19;;;;;;;13.82;9.32;;;;;;;19.89;91.18;101038.38;20837832;28;20045;-64
2022/09/10 13:54:50;;;;;;;17.88;11.50;;;;;;;19.63;93.36;101033.03;20822513;28;20513;-65
2022/09/10 14:05:21;;;;;;;16.00;10.82;;;;;;;19.69;91.99;101036.88;20840942;28;20494;-65
2022/09/10 14:15:43;;;;;;;16.75;10.52;;;;;;;19.72;90.23;101042.69;20821987;28;20465;-64
2022/09/10 14:26:22;;;;;;;16.23;11.13;;;;;;;19.54;90.37;101052.47;20811566;28;20041;-65
2022/09/10 14:36:43;;;;;;;15.60;10.38;;;;;;;19.67;91.16;101044.13;20830289;28;20054;-64
2022/09/10 14:47:08;;;;;;;14.32;8.93;;;;;;;19.75;89.60;101049.50;20815101;28;20494;-63
2022/09/10 14:57:30;;;;;;;16.98;11.32;;;;;;;19.56;89.19;101057.59;20849541;28;20045;-65
2022/09/10 15:07:52;;;;;;;16.73;11.68;;;;;;;19.79;90.21;101058.81;20835837;28;20049;-65
2022/09/10 15:18:13;;;;;;;16.20;11.60;;;;;;;19.80;90.31;101060.44;20821119;28;20781;-64
2022/09/10 15:28:35;;;;;;;14.52;12.13;;;;;;;19.73;91.68;101073.47;20823635;28;20425;-65
2022/09/10 15:38:58;;;;;;;19.77;12.80;;;;;;;19.74;92.31;101082.25;20822147;28;20034;-66
2022/09/10 15:49:19;;;;;;;19.70;12.88;;;;;;;19.88;91.57;101079.06;20813185;28;20091;-65
2022/09/10 15:59:41;;;;;;;17.95;13.85;;;;;;;19.63;91.81;101082.47;20818345;28;20080;-65
2022/09/10 16:10:05;;;;;;;18.23;13.23;;;;;;;19.67;92.90;101075.88;20817906;28;20072;-64
2022/09/10 16:20:26;;;;;;;19.50;11.95;;;;;;;19.80;92.78;101077.19;20828428;28;20049;-65
2022/09/10 16:30:48;;;;;;;17.77;11.65;;;;;;;20.45;86.96;101085.53;20830754;28;20103;-65
2022/09/10 16:41:12;;;;;;;21.33;11.65;;;;;;;19.48;91.89;101113.06;20815742;28;20042;-63
2022/09/10 16:51:34;;;;;;;17.73;11.43;;;;;;;19.22;92.19;101117.34;20846148;28;20141;-64
2022/09/10 17:01:58;;;;;;;20.52;10.32;;;;;;;19.20;93.84;101135.22;20844932;28;20063;-62
2022/09/10 17:12:19;;;;;;;16.70;9.00;;;;;;;19.01;96.87;101148.47;20830081;28;20904;-62
2022/09/10 17:22:41;;;;;;;10.85;6.05;;;;;;;18.89;92.10;101151.41;20828502;28;20049;-63
2022/09/10 17:33:04;;;;;;;16.85;5.05;;;;;;;18.75;91.05;101171.22;20832461;28;20053;-62
2022/09/10 17:43:28;;;;;;;8.85;4.15;;;;;;;18.66;92.27;101177.31;20840476;28;20547;-62
2022/09/10 17:53:52;;;;;;;6.75;3.80;;;;;;;18.53;93.17;101187.34;20827630;28;20074;-62
2022/09/10 18:04:14;;;;;;;14.00;4.28;;;;;;;18.37;95.84;101186.25;20821096;28;20118;-62
2022/09/10 18:14:37;;;;;;;7.00;5.40;;;;;;;18.26;95.65;101202.25;20826324;28;20034;-63
2022/09/10 18:24:58;;;;;;;7.13;5.57;;;;;;;18.03;96.33;101213.97;20829766;28;20472;-62
2022/09/10 18:35:20;;;;;;;7.60;6.05;;;;;;;17.96;98.70;101218.16;20821052;28;20119;-62
2022/09/10 18:45:41;;;;;;;20.13;8.00;;;;;;;17.82;100.00;101237.00;20822619;28;20502;-63
2022/09/10 18:56:08;;;;;;;10.70;8.38;;;;;;;17.73;100.00;101256.25;20809140;28;20076;-62
2022/09/10 19:06:34;;;;;;;14.15;9.43;;;;;;;17.62;100.00;101260.78;20815164;28;20037;-62
2022/09/10 19:16:57;;;;;;;20.95;11.68;;;;;;;17.65;100.00;101265.81;20821329;28;20746;-62
2022/09/10 19:27:18;;;;;;;22.40;12.88;;;;;;;17.50;100.00;101282.94;20810872;28;20452;-62
2022/09/10 19:37:40;;;;;;;23.73;14.80;;;;;;;17.50;100.00;101304.03;20814671;28;20045;-62
2022/09/10 19:48:02;;;;;;;25.73;15.57;;;;;;;17.35;100.00;101310.59;20823812;28;20045;-62
2022/09/10 19:58:23;;;;;;;26.58;16.73;;;;;;;17.19;100.00;101312.84;20814487;28;20060;-62
2022/09/10 20:08:49;;;;;;;25.08;16.52;;;;;;;17.21;100.00;101329.34;20850006;28;20048;-62
2022/09/10 20:19:20;;;;;;;35.45;17.70;;;;;;;17.21;100.00;101339.06;20831421;28;20076;-63
2022/09/10 20:29:42;;;;;;;29.00;18.23;;;;;;;16.99;100.00;101329.50;20814452;28;20140;-62
2022/09/10 20:40:04;;;;;;;35.80;18.33;;;;;;;16.87;100.00;101335.78;20823069;28;20563;-62
2022/09/10 20:50:26;;;;;;;29.75;19.83;;;;;;;16.82;100.00;101342.34;20801313;28;20049;-62
2022/09/10 21:00:47;;;;;;;33.35;20.00;;;;;;;16.72;100.00;101342.31;20848483;28;20053;-63
2022/09/10 21:11:18;;;;;;;31.77;19.88;;;;;;;16.60;100.00;101335.38;20826272;28;20102;-60
2022/09/10 21:21:40;;;;;;;32.43;20.17;;;;;;;16.49;100.00;101340.69;20818432;28;20041;-63
2022/09/10 21:32:02;;;;;;;33.08;21.52;;;;;;;16.44;100.00;101342.00;20827926;28;20095;-62
2022/09/10 21:42:23;;;;;;;34.47;22.10;;;;;;;16.25;100.00;101354.09;20806550;28;20053;-59
2022/09/10 21:52:45;;;;;;;32.30;21.73;;;;;;;16.23;100.00;101353.38;20829303;28;20061;-62
2022/09/10 22:03:06;;;;;;;36.28;23.70;;;;;;;16.14;100.00;101356.75;20824821;28;20056;-62
2022/09/10 22:13:28;;;;;;;34.40;22.55;;;;;;;16.03;100.00;101368.13;20833411;28;20049;-63
2022/09/10 22:23:50;;;;;;;35.58;23.27;;;;;;;15.98;100.00;101377.31;20821702;28;21723;-60
2022/09/10 22:34:14;;;;;;;35.13;23.92;;;;;;;15.82;100.00;101395.25;20837848;28;20092;-60
2022/09/10 22:44:35;;;;;;;39.95;23.92;;;;;;;15.88;100.00;101392.97;20845738;28;20040;-60
2022/09/10 22:54:57;;;;;;;34.10;23.92;;;;;;;15.82;100.00;101390.81;20839214;28;20174;-61
2022/09/10 23:05:18;;;;;;;38.72;24.67;;;;;;;15.64;100.00;101407.16;20840755;28;20277;-60
2022/09/10 23:15:40;;;;;;;34.75;24.27;;;;;;;15.65;100.00;101419.34;20833820;28;20118;-60
2022/09/10 23:26:04;;;;;;;39.40;24.83;;;;;;;15.67;100.00;101427.97;20836215;28;20067;-63
2022/09/10 23:36:28;;;;;;;37.85;24.38;;;;;;;15.60;100.00;101432.00;20827490;28;20099;-60
2022/09/10 23:46:50;;;;;;;39.03;25.98;;;;;;;15.41;100.00;101442.22;20837090;28;20045;-60
2022/09/10 23:57:12;;;;;;;37.85;25.48;;;;;;;15.19;100.00;101442.09;20831764;28;20061;-60
